createdAt,value
2022-11-21T17:02:07.263Z,53.75
2022-11-21T17:03:39.731Z,55.75
2022-11-21T17:05:11.491Z,51.50
2022-11-21T17:06:43.354Z,53.50
2022-11-21T17:08:15.022Z,52.25
2022-11-21T17:09:46.810Z,49.50
2022-11-21T17:11:29.486Z,38.50
2022-11-21T17:13:01.240Z,43.75
2022-11-21T17:14:32.875Z,54.50
2022-11-21T17:16:08.201Z,53.75
2022-11-21T17:17:40.309Z,48.75
2022-11-21T17:19:12.638Z,53.00
2022-11-21T17:20:44.389Z,53.75
2022-11-21T17:22:20.183Z,53.25
2022-11-21T17:23:56.137Z,47.50
2022-11-21T17:25:27.795Z,52.40
2022-11-21T17:27:02.825Z,50.20
2022-11-21T17:28:34.705Z,52.25
2022-11-21T17:30:07.070Z,48.75
2022-11-21T17:31:38.784Z,49.75
2022-11-21T17:33:10.809Z,51.50
2022-11-21T17:34:42.531Z,49.00
2022-11-21T17:36:14.883Z,53.25
2022-11-21T17:37:47.038Z,41.50
2022-11-21T17:39:18.774Z,55.50
2022-11-21T17:41:03.599Z,51.67
2022-11-21T17:42:35.386Z,47.50
2022-11-21T17:44:07.180Z,51.50
2022-11-21T17:45:39.011Z,50.00
2022-11-21T17:47:10.803Z,49.00
2022-11-21T17:48:42.999Z,46.00
2022-11-21T17:50:14.793Z,50.25
2022-11-21T17:51:46.536Z,49.25
2022-11-21T17:53:18.239Z,49.00
2022-11-21T17:54:49.884Z,51.25
2022-11-21T17:56:23.243Z,47.00
2022-11-21T17:57:54.939Z,52.75
2022-11-21T17:59:28.133Z,48.50
2022-11-21T18:01:01.551Z,46.00
2022-11-21T18:02:33.391Z,50.00
2022-11-21T18:04:10.137Z,51.75
2022-11-21T18:05:50.378Z,50.75
2022-11-21T18:07:23.463Z,47.75
2022-11-21T18:08:55.941Z,44.50
2022-11-21T18:10:42.826Z,50.50
2022-11-21T18:12:15.377Z,48.25
2022-11-21T18:13:48.126Z,50.75
2022-11-21T18:15:19.975Z,49.75
2022-11-21T18:16:53.589Z,51.20
2022-11-21T18:18:25.389Z,49.75
2022-11-21T18:19:58.344Z,53.25
2022-11-21T18:21:31.157Z,52.75
2022-11-21T18:23:02.995Z,51.75
2022-11-21T18:24:34.823Z,49.00
2022-11-21T18:26:12.369Z,47.75
2022-11-21T18:27:47.556Z,53.75
2022-11-21T18:29:40.000Z,51.25
2022-11-21T18:31:13.433Z,57.00
2022-11-21T18:32:49.032Z,67.00
2022-11-21T18:34:21.043Z,80.25
2022-11-21T18:35:52.780Z,89.50
2022-11-21T18:37:24.582Z,101.40
2022-11-21T18:39:02.934Z,107.60
2022-11-21T18:40:37.753Z,125.50
2022-11-21T18:42:09.429Z,128.75
2022-11-21T18:43:42.043Z,127.75
2022-11-21T18:45:13.858Z,138.00
2022-11-21T18:46:46.930Z,139.25
2022-11-21T18:48:18.808Z,152.25
2022-11-21T18:49:50.426Z,165.25
2022-11-21T18:51:31.900Z,164.00
2022-11-21T18:53:03.570Z,163.00
2022-11-21T18:54:35.296Z,151.00
2022-11-21T18:56:16.321Z,188.75
2022-11-21T18:57:47.993Z,184.33
2022-11-21T18:59:19.771Z,201.67
2022-11-21T19:00:51.467Z,195.33
2022-11-21T19:02:23.214Z,188.67
2022-11-21T19:03:55.092Z,204.67
2022-11-21T19:05:26.928Z,207.33
2022-11-21T19:06:58.545Z,214.33
2022-11-21T19:08:30.318Z,213.33
2022-11-21T19:10:27.683Z,222.00
2022-11-21T19:11:53.934Z,230.67
2022-11-21T19:13:25.665Z,232.33
2022-11-21T19:14:57.377Z,225.67
2022-11-21T19:16:31.081Z,231.67
2022-11-21T19:18:03.303Z,226.33
2022-11-21T19:19:35.910Z,239.67
2022-11-21T19:21:12.417Z,222.33
2022-11-21T19:22:44.389Z,351.00
2022-11-21T19:24:16.718Z,373.00
2022-11-21T19:25:48.442Z,330.00
2022-11-21T19:27:24.296Z,324.25
2022-11-21T19:28:56.020Z,330.00
2022-11-21T19:30:27.979Z,281.25
2022-11-21T19:31:59.696Z,260.50
2022-11-21T19:33:31.630Z,246.50
2022-11-21T19:35:03.362Z,236.67
2022-11-21T19:36:35.657Z,224.33
2022-11-21T19:38:07.525Z,202.67
2022-11-21T19:39:39.229Z,200.33
2022-11-21T19:41:18.475Z,204.67
2022-11-21T19:42:50.249Z,185.00
2022-11-21T19:44:22.017Z,182.00
2022-11-21T19:45:57.995Z,198.67
2022-11-21T19:47:31.820Z,216.00
2022-11-21T19:49:03.772Z,214.67
2022-11-21T19:50:35.535Z,217.00
2022-11-21T19:52:07.402Z,210.00
2022-11-21T19:53:39.312Z,219.00
2022-11-21T19:55:11.012Z,211.33
2022-11-21T19:56:42.628Z,197.00
2022-11-21T19:58:14.343Z,214.33
2022-11-21T19:59:46.972Z,220.00
2022-11-21T20:01:25.671Z,210.33
2022-11-21T20:02:57.599Z,200.67
2022-11-21T20:04:29.421Z,189.67
2022-11-21T20:06:06.579Z,151.00
2022-11-21T20:07:38.412Z,204.33
2022-11-21T20:09:11.911Z,222.33
2022-11-21T20:10:43.658Z,207.00
2022-11-21T20:12:15.347Z,193.00
2022-11-21T20:13:47.243Z,198.33
2022-11-21T20:15:18.975Z,198.00
2022-11-21T20:16:51.280Z,185.00
2022-11-21T20:18:23.358Z,198.67
2022-11-21T20:19:55.085Z,197.67
2022-11-21T20:21:26.947Z,201.00
2022-11-21T20:22:58.738Z,194.33
2022-11-21T20:24:30.715Z,178.50
2022-11-21T20:26:02.907Z,205.00
2022-11-21T20:27:37.360Z,255.25
2022-11-21T20:29:10.724Z,280.25
2022-11-21T20:30:42.684Z,267.50
2022-11-21T20:32:14.361Z,265.00
2022-11-21T20:33:51.653Z,250.00
2022-11-21T20:35:24.400Z,236.00
2022-11-21T20:36:56.303Z,233.00
2022-11-21T20:38:28.062Z,218.00
2022-11-21T20:39:59.825Z,207.67
2022-11-21T20:41:33.119Z,186.67
2022-11-21T20:43:04.854Z,181.75
2022-11-21T20:45:36.386Z,174.25
2022-11-21T20:46:29.909Z,165.50
2022-11-21T20:48:09.722Z,164.50
2022-11-21T20:49:42.345Z,135.50
2022-11-21T20:52:43.328Z,143.75
2022-11-21T20:53:50.788Z,134.25
2022-11-21T20:54:57.691Z,127.75
2022-11-21T20:56:31.932Z,118.75
2022-11-21T20:58:03.654Z,109.25
2022-11-21T20:59:35.588Z,112.50
2022-11-21T21:01:07.629Z,118.00
2022-11-21T21:02:39.540Z,109.80
2022-11-21T21:04:12.303Z,103.40
2022-11-21T21:05:44.103Z,97.20
2022-11-21T21:07:15.902Z,97.50
2022-11-21T21:08:47.904Z,96.25
2022-11-21T21:10:22.644Z,101.60
2022-11-21T21:11:54.464Z,107.80
2022-11-21T21:13:26.804Z,118.25
2022-11-21T21:14:58.522Z,115.75
2022-11-21T21:16:30.695Z,108.50
2022-11-21T21:18:02.441Z,123.75
2022-11-21T21:19:34.126Z,122.50
2022-11-21T21:21:16.990Z,99.75
2022-11-21T21:22:49.202Z,121.50
2022-11-21T21:24:21.042Z,114.50
2022-11-21T21:25:53.310Z,121.75
2022-11-21T21:27:25.200Z,128.75
2022-11-21T21:28:57.412Z,119.00
2022-11-21T21:30:29.137Z,137.75
2022-11-21T21:32:00.910Z,168.25
2022-11-21T21:33:32.712Z,150.50
2022-11-21T21:35:04.852Z,138.50
2022-11-21T21:36:36.825Z,140.25
2022-11-21T21:38:09.272Z,159.50
2022-11-21T21:39:41.101Z,158.00
2022-11-21T21:41:13.798Z,166.25
2022-11-21T21:42:45.544Z,168.75
2022-11-21T21:44:17.524Z,161.50
2022-11-21T21:45:49.229Z,159.25
2022-11-21T21:47:21.389Z,157.00
2022-11-21T21:48:56.969Z,163.50
2022-11-21T21:50:28.615Z,155.00
2022-11-21T21:52:00.351Z,155.50
2022-11-21T21:53:32.475Z,151.00
2022-11-21T21:55:05.151Z,158.00
2022-11-21T21:56:36.962Z,158.00
2022-11-21T21:58:08.756Z,170.75
2022-11-21T21:59:40.679Z,171.50
2022-11-21T22:01:13.773Z,158.00
2022-11-21T22:02:45.551Z,168.75
2022-11-21T22:04:17.475Z,180.25
2022-11-21T22:05:49.322Z,169.00
2022-11-21T22:07:21.088Z,178.75
2022-11-21T22:08:53.734Z,194.00
2022-11-21T22:10:25.342Z,168.75
2022-11-21T22:11:57.146Z,176.25
2022-11-21T22:13:29.354Z,174.75
2022-11-21T22:15:01.133Z,166.75
2022-11-21T22:16:33.186Z,172.00
2022-11-21T22:18:05.051Z,162.50
2022-11-21T22:19:36.906Z,157.00
2022-11-21T22:21:14.424Z,166.00
2022-11-21T22:22:46.089Z,159.75
2022-11-21T22:24:25.308Z,160.00
2022-11-21T22:25:57.939Z,160.00
2022-11-21T22:27:30.923Z,152.25
2022-11-21T22:29:02.642Z,159.50
2022-11-21T22:30:34.279Z,150.75
2022-11-21T22:32:06.351Z,152.00
2022-11-21T22:33:38.672Z,138.00
2022-11-21T22:35:10.326Z,140.25
2022-11-21T22:36:42.188Z,137.25
2022-11-21T22:38:15.034Z,140.75
2022-11-21T22:39:46.677Z,134.75
2022-11-21T22:41:20.446Z,130.50
2022-11-21T22:42:52.609Z,124.25
2022-11-21T22:44:24.308Z,124.25
2022-11-21T22:45:59.112Z,125.75
2022-11-21T22:47:30.895Z,124.50
2022-11-21T22:49:03.655Z,112.75
2022-11-21T22:50:35.414Z,113.00
2022-11-21T22:52:07.302Z,111.75
2022-11-21T22:53:40.411Z,115.00
2022-11-21T22:55:12.747Z,108.75
2022-11-21T22:56:44.695Z,108.20
2022-11-21T22:58:16.474Z,104.00
2022-11-21T22:59:48.579Z,105.40
2022-11-21T23:01:22.452Z,81.40
2022-11-21T23:02:54.336Z,101.00
2022-11-21T23:04:26.033Z,93.20
2022-11-21T23:06:23.839Z,106.80
2022-11-21T23:07:56.054Z,94.00
2022-11-21T23:09:28.031Z,85.00
2022-11-21T23:11:07.638Z,87.00
2022-11-21T23:12:39.345Z,84.50
2022-11-21T23:14:11.102Z,74.50
2022-11-21T23:15:42.952Z,79.50
2022-11-21T23:17:15.337Z,82.50
2022-11-21T23:18:47.261Z,99.20
2022-11-21T23:20:18.953Z,111.25
2022-11-21T23:21:50.722Z,109.40
2022-11-21T23:23:22.573Z,112.00
2022-11-21T23:24:54.311Z,101.00
2022-11-21T23:26:26.080Z,107.00
2022-11-21T23:27:57.783Z,103.80
2022-11-21T23:29:29.627Z,117.25
2022-11-21T23:31:01.608Z,113.75
2022-11-21T23:32:33.335Z,107.00
2022-11-21T23:34:05.037Z,105.25
